Airfield :
LOGIN :

Register | Disclaimer

   EN    FR    IT 

 










Legend :    VFR   Marginal VFR   IFR   Intensive IFR   Very Intensive IFR
Visi :
Ceiling :
>= 8 km
>= 3000ft
5 to 8 km
1000 to 3000 ft
1500m to 5 km
500 to 1000 ft
800 to 1500m
200 to 500 ft
< 800m
< 200 ft
Symbols :   Thunderstorms  Fog  Heavy snow  Heavy precipitations  Wind > 20 kt
SIGMETs :     Misc.  Thunderstorms  Icing  Turbulence  Mountain Waves  Volcanic Ashes






- Airport Elevation : 433 ft


LFOC - Chateaudun

CURRENT METAR :
  • 190900Z AUTO 05005KT 010V070 9999 OVC007 20/18 Q1014

EXPIRED METARs :
  • 190830Z AUTO 04006KT 8000 OVC004 18/18 Q1014
  • 190800Z AUTO 01005KT 6000 OVC004 17/17 Q1014
  • 190730Z AUTO 02006KT 4500 BR OVC002 17/16 Q1014
  • 190700Z AUTO 02006KT 3900 -RA BR BKN002/// BKN015/// BKN044/// ///TCU 16/16 Q1014
  • 190630Z AUTO 07003KT 040V100 4000 -RA BR BKN003/// BKN017/// OVC066/// ///CB 16/16 Q1015

Expired Forecast.



MET'MAP, your aeronautical weather chart ! - Copyright ORBIFLY December 2007 - Disclaimer

ORBIFLY MET'MAP TEAM :

Programming & Development : Alexandra Zaïnal
Concept & original design : Baudouin d'Aumeries
Assistance for programming : Marc-Olivier Méhu
Technical & hardware support : Manuel Goepfert

Contact : metmap@orbifly.com




SOURCES & CREDITS :

   NOAA